createdAt,value
2019-05-15T19:13:15.190Z,40.8
2019-05-15T19:14:18.999Z,41.0
2019-05-15T19:15:39.327Z,41.1
2019-05-15T19:16:41.671Z,41.4
2019-05-15T19:17:43.023Z,41.7
2019-05-15T19:18:44.617Z,41.9
2019-05-15T19:19:48.030Z,41.8
2019-05-15T19:20:48.666Z,41.9
2019-05-15T19:21:50.038Z,42.0
2019-05-15T19:22:51.476Z,42.3
2019-05-15T19:23:53.428Z,42.6
2019-05-15T19:24:54.828Z,42.2
2019-05-15T19:25:57.790Z,42.4
2019-05-15T19:26:58.658Z,42.3
2019-05-15T19:27:59.535Z,42.3
2019-05-15T19:29:01.294Z,42.7
2019-05-15T19:30:02.688Z,42.6
2019-05-15T19:31:04.081Z,42.9
2019-05-15T19:32:08.246Z,43.1
2019-05-15T19:33:07.849Z,43.2
2019-05-15T19:34:08.866Z,43.5
2019-05-15T19:35:10.301Z,43.3
2019-05-15T19:36:11.654Z,43.3
2019-05-15T19:37:13.730Z,43.3
2019-05-15T19:38:15.127Z,43.3
2019-05-15T19:39:18.471Z,43.1
2019-05-15T19:40:18.704Z,43.3
2019-05-15T19:41:19.699Z,42.9
2019-05-15T19:42:21.415Z,43.3
2019-05-15T19:43:22.806Z,42.9
2019-05-15T19:44:24.203Z,43.7
2019-05-15T19:45:27.762Z,44.0
2019-05-15T19:46:28.315Z,43.4
2019-05-15T19:47:28.755Z,43.3
2019-05-15T19:48:30.192Z,43.7
2019-05-15T19:49:31.626Z,44.3
2019-05-15T19:50:34.245Z,44.2
2019-05-15T19:51:37.965Z,44.2
2019-05-15T19:52:37.508Z,44.4
2019-05-15T19:53:38.930Z,44.6
2019-05-15T19:54:40.298Z,44.6
2019-05-15T19:55:41.848Z,44.5
2019-05-15T19:56:43.241Z,44.6
2019-05-15T19:57:44.640Z,45.1
2019-05-15T19:58:46.594Z,44.3
2019-05-15T19:59:48.823Z,44.4
2019-05-15T20:00:51.490Z,44.7
2019-05-15T20:01:50.708Z,44.7
2019-05-15T20:02:52.211Z,44.5
2019-05-15T20:03:53.614Z,45.1
2019-05-15T20:04:55.057Z,45.4
2019-05-15T20:05:57.742Z,45.1
2019-05-15T20:06:57.830Z,45.6
2019-05-15T20:07:59.232Z,45.3
2019-05-15T20:09:00.625Z,45.4
2019-05-15T20:10:02.015Z,45.7
2019-05-15T20:11:03.636Z,45.5
2019-05-15T20:12:04.994Z,45.7
2019-05-15T20:13:06.574Z,45.8
2019-05-15T20:14:07.976Z,45.9
2019-05-15T20:15:09.462Z,45.7
2019-05-15T20:16:10.719Z,45.8
2019-05-15T20:17:13.073Z,46.5
2019-05-15T20:18:14.679Z,46.6
2019-05-15T20:19:17.991Z,46.9
2019-05-15T20:20:18.690Z,46.3
2019-05-15T20:21:18.777Z,46.6
2019-05-15T20:22:20.177Z,46.3
2019-05-15T20:23:21.570Z,46.8
2019-05-15T20:24:23.249Z,47.3
2019-05-15T20:25:24.631Z,47.1
2019-05-15T20:26:28.441Z,47.0
2019-05-15T20:27:28.201Z,46.8
2019-05-15T20:28:28.733Z,47.4
2019-05-15T20:29:30.094Z,47.6
2019-05-15T20:30:31.486Z,47.6
2019-05-15T20:31:33.193Z,47.9
2019-05-15T20:32:34.591Z,47.7
2019-05-15T20:33:37.753Z,47.9
2019-05-15T20:34:37.915Z,47.9
2019-05-15T20:35:38.762Z,47.9
2019-05-15T20:36:40.192Z,48.3
2019-05-15T20:37:42.124Z,48.3
2019-05-15T20:38:42.957Z,48.7
2019-05-15T20:39:44.362Z,48.7
2019-05-15T20:40:45.748Z,48.6
2019-05-15T20:41:48.600Z,48.7
2019-05-15T20:42:48.571Z,48.7
2019-05-15T20:43:49.973Z,48.7
2019-05-15T20:44:51.361Z,48.9
2019-05-15T20:45:52.838Z,49.4
2019-05-15T20:46:54.249Z,49.8
2019-05-15T20:47:55.635Z,49.1
2019-05-15T20:48:58.114Z,48.8
2019-05-15T20:49:58.421Z,48.7
2019-05-15T20:50:59.819Z,49.4
2019-05-15T20:52:01.231Z,49.2
2019-05-15T20:53:02.626Z,50.0
2019-05-15T20:54:04.016Z,49.8
2019-05-15T20:55:07.553Z,50.7
2019-05-15T20:56:08.203Z,50.3
2019-05-15T20:57:08.805Z,50.4
2019-05-15T20:58:09.507Z,50.8
2019-05-15T20:59:10.950Z,49.9
2019-05-15T21:00:12.346Z,49.9
2019-05-15T21:01:13.746Z,50.0
2019-05-15T21:02:15.133Z,50.5
2019-05-15T21:03:17.940Z,50.5
2019-05-15T21:04:22.284Z,50.3
2019-05-15T21:05:19.248Z,50.6
2019-05-15T21:06:20.636Z,50.6
2019-05-15T21:07:34.707Z,50.7
2019-05-15T21:08:23.380Z,50.5
2019-05-15T21:09:24.773Z,50.5
2019-05-15T21:10:26.164Z,50.9
2019-05-15T21:11:27.552Z,50.3
2019-05-15T21:12:29.860Z,50.6
2019-05-15T21:13:30.328Z,51.0
2019-05-15T21:14:31.723Z,50.9
2019-05-15T21:15:33.119Z,50.9
2019-05-15T21:16:34.509Z,51.0
2019-05-15T21:17:35.906Z,51.0
2019-05-15T21:18:37.978Z,51.4
2019-05-15T21:19:38.698Z,50.9
2019-05-15T21:20:40.048Z,51.5
2019-05-15T21:21:41.403Z,51.7
2019-05-15T21:22:42.808Z,52.1
2019-05-15T21:23:44.215Z,52.1
2019-05-15T21:24:45.601Z,52.1
2019-05-15T21:25:48.456Z,52.1
2019-05-15T21:26:48.832Z,52.1
2019-05-15T21:27:49.819Z,52.4
2019-05-15T21:28:51.293Z,52.3
2019-05-15T21:29:52.683Z,52.3
2019-05-15T21:30:54.041Z,52.3
2019-05-15T21:31:57.854Z,52.3
2019-05-15T21:32:58.243Z,52.5
2019-05-15T21:33:58.876Z,52.6
2019-05-15T21:34:59.634Z,52.2
2019-05-15T21:36:01.054Z,52.8
2019-05-15T21:37:02.512Z,52.7
2019-05-15T21:38:03.901Z,52.6
2019-05-15T21:39:05.342Z,52.5
2019-05-15T21:40:08.220Z,52.6
2019-05-15T21:41:09.094Z,52.9
2019-05-15T21:42:10.483Z,53.0
2019-05-15T21:43:11.869Z,53.7
2019-05-15T21:44:13.288Z,53.4
2019-05-15T21:45:14.815Z,53.7
2019-05-15T21:46:16.052Z,53.8
2019-05-15T21:47:18.883Z,52.8
2019-05-15T21:48:18.822Z,52.9
2019-05-15T21:49:20.244Z,52.9
2019-05-15T21:50:21.699Z,53.1
2019-05-15T21:51:23.112Z,53.1
2019-05-15T21:52:24.546Z,53.1
2019-05-15T21:53:28.501Z,53.1
2019-05-15T21:54:28.183Z,53.5
2019-05-15T21:55:28.839Z,53.7
2019-05-15T21:56:30.082Z,52.8
2019-05-15T21:57:36.390Z,53.1
2019-05-15T21:58:32.806Z,53.7
2019-05-15T21:59:34.198Z,53.4
2019-05-15T22:00:38.034Z,53.7
2019-05-15T22:01:39.473Z,53.7
2019-05-15T22:02:38.826Z,53.8
2019-05-15T22:03:39.681Z,54.0
2019-05-15T22:04:51.932Z,54.0
2019-05-15T22:05:42.458Z,53.5
2019-05-15T22:06:43.860Z,53.4
2019-05-15T22:07:45.233Z,53.7
2019-05-15T22:08:46.643Z,54.2
2019-05-15T22:09:48.704Z,54.1
2019-05-15T22:10:49.416Z,53.9
2019-05-15T22:11:50.814Z,54.2
2019-05-15T22:12:52.199Z,54.1
2019-05-15T22:13:53.611Z,54.0
2019-05-15T22:14:54.962Z,54.0
2019-05-15T22:15:58.756Z,54.2
2019-05-15T22:16:59.757Z,54.3
2019-05-15T22:17:59.160Z,54.2
2019-05-15T22:19:00.566Z,54.4
2019-05-15T22:20:01.964Z,54.6
2019-05-15T22:21:03.347Z,54.7
2019-05-15T22:22:04.774Z,54.8
2019-05-15T22:23:08.087Z,54.7
2019-05-15T22:24:08.728Z,55.2
2019-05-15T22:25:11.397Z,55.2
2019-05-15T22:26:10.325Z,54.7
2019-05-15T22:27:11.719Z,55.1
2019-05-15T22:28:13.127Z,55.0
2019-05-15T22:29:14.515Z,54.9
2019-05-15T22:30:15.947Z,55.1
2019-05-15T22:31:17.334Z,55.2
2019-05-15T22:32:18.706Z,55.2
2019-05-15T22:33:20.088Z,55.5
2019-05-15T22:34:21.475Z,55.4
2019-05-15T22:35:22.862Z,55.6
2019-05-15T22:36:24.283Z,55.3
2019-05-15T22:37:25.722Z,55.7
2019-05-15T22:38:28.516Z,55.7
2019-05-15T22:39:28.518Z,55.7
2019-05-15T22:40:29.877Z,55.5
2019-05-15T22:41:31.277Z,56.0
2019-05-15T22:42:32.680Z,56.0
2019-05-15T22:43:34.103Z,55.7
2019-05-15T22:44:35.501Z,56.0
2019-05-15T22:45:37.706Z,56.1
2019-05-15T22:46:38.333Z,55.7
2019-05-15T22:47:39.637Z,55.7
2019-05-15T22:48:41.013Z,55.8
2019-05-15T22:49:42.366Z,55.8
2019-05-15T22:50:43.764Z,55.7
2019-05-15T22:51:45.152Z,55.9
2019-05-15T22:52:48.967Z,56.3
2019-05-15T22:53:48.821Z,56.3
2019-05-15T22:54:49.300Z,56.4
2019-05-15T22:55:50.688Z,56.3
2019-05-15T22:56:52.082Z,56.5
2019-05-15T22:57:53.443Z,56.8
2019-05-15T22:58:54.839Z,56.8
2019-05-15T22:59:58.049Z,56.3
2019-05-15T23:00:59.796Z,56.5
2019-05-15T23:01:58.980Z,56.6
2019-05-15T23:03:00.405Z,57.0
2019-05-15T23:04:01.798Z,57.3
2019-05-15T23:05:03.215Z,57.8
2019-05-15T23:06:04.616Z,57.8
2019-05-15T23:07:07.998Z,57.8
2019-05-15T23:08:07.326Z,57.8
2019-05-15T23:09:08.727Z,57.7
2019-05-15T23:10:10.202Z,57.6
2019-05-15T23:11:11.599Z,57.8
2019-05-15T23:12:12.991Z,57.7
2019-05-15T23:13:14.382Z,58.5
2019-05-15T23:14:17.984Z,58.4
2019-05-15T23:15:18.915Z,58.0
2019-05-15T23:16:18.567Z,58.4
2019-05-15T23:17:19.961Z,58.0
2019-05-15T23:18:21.383Z,57.7
2019-05-15T23:19:22.787Z,57.5
2019-05-15T23:20:24.177Z,58.0
2019-05-15T23:21:25.584Z,57.1
2019-05-15T23:22:27.949Z,57.1
2019-05-15T23:23:28.687Z,57.1
2019-05-15T23:24:29.702Z,57.2
2019-05-15T23:25:31.093Z,57.4
2019-05-15T23:26:32.512Z,56.9
2019-05-15T23:27:33.917Z,56.4
2019-05-15T23:28:35.312Z,56.7
2019-05-15T23:29:38.330Z,56.6
2019-05-15T23:30:38.115Z,56.3
2019-05-15T23:31:39.524Z,56.9
2019-05-15T23:32:40.962Z,56.9
2019-05-15T23:33:42.354Z,57.8
2019-05-15T23:34:43.783Z,57.9
2019-05-15T23:35:45.188Z,57.2
2019-05-15T23:36:48.222Z,57.8
2019-05-15T23:37:48.639Z,57.6
2019-05-15T23:38:49.346Z,57.8
2019-05-15T23:39:50.738Z,57.9
2019-05-15T23:40:52.136Z,58.3
2019-05-15T23:41:53.545Z,58.6
2019-05-15T23:42:54.934Z,58.1
2019-05-15T23:43:56.339Z,58.4
2019-05-15T23:44:57.753Z,58.4
2019-05-15T23:45:59.160Z,58.0
2019-05-15T23:47:00.544Z,57.7
2019-05-15T23:48:01.983Z,58.6
2019-05-15T23:49:03.381Z,58.4
2019-05-15T23:50:04.778Z,58.8
2019-05-15T23:51:08.319Z,58.7
2019-05-15T23:52:08.924Z,58.7
2019-05-15T23:53:08.906Z,59.0
2019-05-15T23:54:10.301Z,59.1
2019-05-15T23:55:11.697Z,59.8
2019-05-15T23:56:13.117Z,59.0
2019-05-15T23:57:14.519Z,59.6
2019-05-15T23:58:18.658Z,59.6
2019-05-15T23:59:18.775Z,59.5
